Time;durP1;ratioP1;P1;durP2;ratioP2;P2;SDS_P1;SDS_P2;PMS_P1;PMS_P2;Temp;Humidity;BMP_temperature;BMP_pressure;BME280_temperature;BME280_humidity;BME280_pressure;Samples;Min_cycle;Max_cycle;Signal;HPM_P1;HPM_P2
2021/07/08 00:02:20;;;;;;;4.35;1.05;;;;;;;15.12;87.50;99546.47;1993666;79;22868;-78
2021/07/08 00:05:24;;;;;;;5.21;1.30;;;;;;;15.08;87.49;99556.16;1995044;81;20307;-78
2021/07/08 00:08:27;;;;;;;5.50;1.17;;;;;;;15.06;87.61;99549.19;1995058;81;20241;-77
2021/07/08 00:11:30;;;;;;;3.80;1.89;;;;;;;14.98;87.52;99548.50;1996165;81;20216;-78
2021/07/08 00:14:34;;;;;;;6.11;1.17;;;;;;;14.95;87.55;99544.19;1995368;81;20194;-78
2021/07/08 00:17:37;;;;;;;5.07;1.24;;;;;;;14.96;87.61;99542.44;1990295;79;20667;-78
2021/07/08 00:20:41;;;;;;;5.63;1.58;;;;;;;14.95;87.73;99538.97;1993195;81;20228;-78
2021/07/08 00:23:44;;;;;;;2.53;1.30;;;;;;;14.92;87.81;99539.03;1991555;81;20179;-78
2021/07/08 00:26:47;;;;;;;7.11;1.35;;;;;;;14.90;87.85;99532.97;1991727;81;20176;-78
2021/07/08 00:29:50;;;;;;;7.28;1.92;;;;;;;14.87;87.79;99534.78;1990847;81;20233;-78
2021/07/08 00:32:53;;;;;;;6.54;1.50;;;;;;;14.85;87.63;99537.41;1991213;79;22136;-78
2021/07/08 00:35:57;;;;;;;5.85;1.23;;;;;;;14.82;87.67;99537.47;1992291;81;20703;-78
2021/07/08 00:39:00;;;;;;;1.83;1.05;;;;;;;14.78;87.77;99539.31;1992212;81;20241;-78
2021/07/08 00:42:03;;;;;;;5.00;1.70;;;;;;;14.76;87.68;99537.63;1990527;81;20222;-78
2021/07/08 00:45:10;;;;;;;3.91;1.31;;;;;;;14.73;87.70;99533.31;1989944;81;20335;-78
2021/07/08 00:48:14;;;;;;;3.71;1.84;;;;;;;14.71;87.41;99529.84;1995718;78;20235;-78
2021/07/08 00:51:16;;;;;;;11.04;2.88;;;;;;;14.69;87.36;99530.75;1995841;81;20215;-78
2021/07/08 00:54:19;;;;;;;7.26;1.83;;;;;;;14.65;87.52;99531.72;1996021;81;20676;-77
2021/07/08 00:57:27;;;;;;;5.72;1.51;;;;;;;14.61;87.91;99527.44;1995975;81;20178;-79
2021/07/08 01:00:32;;;;;;;5.74;1.41;;;;;;;14.59;88.06;99524.00;1994196;78;22611;-78
2021/07/08 01:03:35;;;;;;;2.35;1.14;;;;;;;14.56;88.12;99535.38;1991226;81;20261;-79
2021/07/08 01:06:44;;;;;;;2.29;1.15;;;;;;;14.53;88.07;99527.56;1991561;81;20175;-77
2021/07/08 01:09:47;;;;;;;3.72;1.20;;;;;;;14.51;88.33;99539.78;1992361;81;20225;-77
2021/07/08 01:12:49;;;;;;;4.69;1.21;;;;;;;14.50;88.34;99538.94;1991806;81;20642;-77
2021/07/08 01:15:53;;;;;;;5.65;1.59;;;;;;;14.46;88.71;99539.03;1992859;81;20300;-78
2021/07/08 01:18:56;;;;;;;3.84;1.21;;;;;;;14.43;89.34;99536.44;1996643;78;22157;-78
2021/07/08 01:21:59;;;;;;;8.30;1.60;;;;;;;14.42;89.47;99534.72;1997145;81;20175;-77
2021/07/08 01:25:04;;;;;;;2.59;1.14;;;;;;;14.44;89.30;99528.59;1996914;81;20352;-78
2021/07/08 01:28:09;;;;;;;3.88;1.38;;;;;;;14.43;89.32;99545.16;1996813;81;20734;-78
2021/07/08 01:31:12;;;;;;;5.06;1.49;;;;;;;14.42;89.04;99537.31;1997623;81;20987;-77
2021/07/08 01:34:15;;;;;;;4.70;1.60;;;;;;;14.40;88.89;99537.34;1990868;81;30833;-79
2021/07/08 01:37:17;;;;;;;3.09;1.17;;;;;;;14.36;88.59;99535.69;1991800;81;20195;-77
2021/07/08 01:40:21;;;;;;;2.20;1.34;;;;;;;14.34;88.63;99541.81;1992056;81;20614;-77
2021/07/08 01:43:23;;;;;;;5.09;1.20;;;;;;;14.33;88.84;99542.69;1991827;81;20626;-78
2021/07/08 01:46:26;;;;;;;3.05;1.30;;;;;;;14.32;88.88;99541.84;1993720;78;20653;-78
2021/07/08 01:49:30;;;;;;;5.69;1.20;;;;;;;14.32;88.81;99526.16;1997425;81;20407;-78
2021/07/08 01:52:33;;;;;;;2.94;1.17;;;;;;;14.32;88.62;99528.78;1997272;81;20190;-78
2021/07/08 01:55:36;;;;;;;3.29;1.08;;;;;;;14.32;88.61;99534.00;1996680;81;20218;-78
2021/07/08 01:58:39;;;;;;;5.20;1.27;;;;;;;14.31;88.57;99531.41;1996975;81;20171;-78
2021/07/08 02:01:42;;;;;;;2.22;1.00;;;;;;;14.30;88.54;99527.94;1994423;78;22786;-78
2021/07/08 02:04:44;;;;;;;2.91;1.00;;;;;;;14.29;88.54;99523.59;1993558;81;20204;-78
2021/07/08 02:07:47;;;;;;;4.19;1.10;;;;;;;14.28;88.55;99519.28;1993956;81;20204;-77
2021/07/08 02:10:50;;;;;;;5.70;1.00;;;;;;;14.23;88.75;99522.88;1992908;81;20182;-78
2021/07/08 02:13:52;;;;;;;2.71;1.10;;;;;;;14.23;88.98;99525.47;1993427;81;20187;-78
2021/07/08 02:16:56;;;;;;;6.25;1.00;;;;;;;14.21;88.97;99531.59;1995482;78;22041;-77
2021/07/08 02:19:59;;;;;;;2.11;0.94;;;;;;;14.19;88.97;99527.28;1998424;81;20649;-78
2021/07/08 02:23:01;;;;;;;2.74;1.00;;;;;;;14.09;88.89;99530.91;1998330;81;20187;-77
2021/07/08 02:26:05;;;;;;;5.07;1.15;;;;;;;14.01;89.06;99517.16;1998902;81;20786;-78
2021/07/08 02:29:09;;;;;;;2.54;1.15;;;;;;;13.98;89.25;99518.03;1998430;81;20163;-78
2021/07/08 02:32:12;;;;;;;4.66;1.24;;;;;;;14.00;89.31;99529.31;1993598;79;23172;-78
2021/07/08 02:35:14;;;;;;;6.40;2.05;;;;;;;14.03;89.46;99534.50;1992986;81;20224;-77
2021/07/08 02:38:17;;;;;;;5.45;1.69;;;;;;;14.02;89.46;99534.53;1993522;81;20219;-78
2021/07/08 02:41:20;;;;;;;4.76;1.39;;;;;;;13.98;89.78;99540.66;1992596;81;20179;-78
2021/07/08 02:44:23;;;;;;;3.63;1.14;;;;;;;13.98;89.82;99543.28;1992532;81;20195;-78
2021/07/08 02:47:25;;;;;;;7.76;1.40;;;;;;;13.99;89.94;99548.47;1996035;78;23431;-78
2021/07/08 02:50:33;;;;;;;4.84;1.17;;;;;;;14.02;89.96;99547.59;1998076;81;20186;-78
2021/07/08 02:53:35;;;;;;;6.72;1.06;;;;;;;14.03;89.89;99552.78;1998517;81;20202;-78
2021/07/08 02:56:38;;;;;;;4.03;1.14;;;;;;;14.04;89.86;99546.69;1997879;81;20660;-78
2021/07/08 02:59:41;;;;;;;4.05;1.10;;;;;;;14.07;90.02;99557.06;1998782;81;20175;-78
2021/07/08 03:02:44;;;;;;;5.31;1.08;;;;;;;14.08;89.79;99561.41;1996444;78;22517;-78
2021/07/08 03:05:47;;;;;;;4.51;1.05;;;;;;;14.08;89.92;99553.56;1996795;81;20226;-78
2021/07/08 03:08:49;;;;;;;6.65;1.30;;;;;;;14.12;89.56;99546.53;1996955;81;20182;-78
2021/07/08 03:11:52;;;;;;;4.09;1.06;;;;;;;14.13;89.50;99535.19;1997300;81;20565;-78
2021/07/08 03:14:55;;;;;;;3.11;1.38;;;;;;;14.13;89.37;99533.44;1998187;81;20233;-78
2021/07/08 03:17:58;;;;;;;2.40;1.00;;;;;;;14.15;89.41;99536.91;1990965;78;25397;-77
2021/07/08 03:21:00;;;;;;;4.80;1.11;;;;;;;14.16;89.22;99540.38;1992054;81;20175;-78
2021/07/08 03:24:05;;;;;;;1.40;1.14;;;;;;;14.18;89.34;99556.88;1992300;81;20296;-78
2021/07/08 03:27:08;;;;;;;3.91;1.36;;;;;;;14.17;89.67;99565.59;1992176;81;20246;-77
2021/07/08 03:30:14;;;;;;;2.61;1.13;;;;;;;14.19;89.28;99545.56;1991976;81;20194;-77
2021/07/08 03:33:16;;;;;;;3.50;1.20;;;;;;;14.15;89.25;99539.50;1992129;79;21075;-78
2021/07/08 03:36:19;;;;;;;3.59;1.30;;;;;;;14.06;89.61;99542.28;1992710;81;20938;-77
2021/07/08 03:39:22;;;;;;;3.71;1.20;;;;;;;14.00;89.87;99536.28;1992723;81;20200;-78
2021/07/08 03:42:25;;;;;;;4.29;1.50;;;;;;;14.00;90.20;99537.13;1992150;81;20732;-78
2021/07/08 03:45:27;;;;;;;5.30;1.44;;;;;;;14.02;90.22;99540.63;1992383;79;20283;-78
2021/07/08 03:48:30;;;;;;;6.75;1.16;;;;;;;14.07;90.37;99540.53;1996924;81;20292;-77
2021/07/08 03:51:33;;;;;;;2.31;1.36;;;;;;;14.09;90.42;99528.31;1997149;81;20524;-77
2021/07/08 03:54:36;;;;;;;4.74;1.15;;;;;;;14.11;90.43;99527.41;1997340;81;20748;-78
2021/07/08 03:57:52;;;;;;;1.63;1.25;;;;;;;14.14;90.44;99531.69;1998025;81;20194;-77
2021/07/08 04:00:55;;;;;;;4.97;1.40;;;;;;;14.16;90.51;99530.78;1995661;78;20380;-78
2021/07/08 04:03:57;;;;;;;3.22;1.20;;;;;;;14.20;90.38;99545.53;1995673;81;20195;-77
2021/07/08 04:07:00;;;;;;;5.09;1.40;;;;;;;14.23;90.11;99547.22;1992780;81;20191;-78
2021/07/08 04:10:04;;;;;;;5.44;1.40;;;;;;;14.17;89.91;99545.56;1992617;81;20277;-79
2021/07/08 04:13:17;;;;;;;3.86;1.41;;;;;;;14.13;90.04;99540.44;1992277;81;20790;-78
2021/07/08 04:16:20;;;;;;;3.53;1.36;;;;;;;14.08;90.33;99535.28;1992538;78;20420;-77
2021/07/08 04:19:23;;;;;;;3.06;1.21;;;;;;;14.10;90.52;99536.13;1992423;81;20339;-77
2021/07/08 04:22:25;;;;;;;4.82;1.52;;;;;;;14.15;90.45;99533.41;1992577;81;20193;-78
2021/07/08 04:25:28;;;;;;;8.86;1.61;;;;;;;14.19;90.47;99535.97;1992262;81;20464;-78
2021/07/08 04:28:31;;;;;;;4.75;1.31;;;;;;;14.23;90.33;99531.56;1992739;81;20239;-76
2021/07/08 04:31:34;;;;;;;2.03;1.29;;;;;;;14.24;90.67;99535.91;1993620;79;21214;-78
2021/07/08 04:34:37;;;;;;;5.11;1.35;;;;;;;14.28;90.62;99537.56;1997079;81;20216;-78
2021/07/08 04:37:42;;;;;;;4.44;1.52;;;;;;;14.32;90.49;99538.38;1997517;81;20194;-77
2021/07/08 04:40:45;;;;;;;2.78;1.67;;;;;;;14.45;90.34;99559.06;1997131;81;20194;-77
2021/07/08 04:43:47;;;;;;;4.59;1.70;;;;;;;14.59;90.08;99557.97;1997369;81;20227;-78
2021/07/08 04:46:50;;;;;;;5.55;1.75;;;;;;;14.76;89.89;99555.91;1992989;79;20417;-78
2021/07/08 04:49:53;;;;;;;5.04;1.64;;;;;;;14.88;89.36;99554.78;1992147;81;20193;-77
2021/07/08 04:52:56;;;;;;;6.40;1.60;;;;;;;15.00;89.03;99546.72;1994311;81;20215;-77
2021/07/08 04:55:58;;;;;;;5.06;1.70;;;;;;;15.14;88.71;99543.84;1991992;81;20203;-77
2021/07/08 04:59:01;;;;;;;2.70;1.50;;;;;;;15.28;88.52;99547.91;1993113;81;20222;-77
2021/07/08 05:02:04;;;;;;;5.91;1.63;;;;;;;15.44;87.92;99556.28;1991154;78;20216;-78
2021/07/08 05:05:08;;;;;;;4.44;1.67;;;;;;;15.55;87.53;99561.25;1995657;81;20268;-77
2021/07/08 05:08:11;;;;;;;7.65;2.06;;;;;;;15.74;87.29;99561.75;1992494;81;20299;-77
2021/07/08 05:11:14;;;;;;;4.06;1.90;;;;;;;16.02;86.82;99553.22;1992147;81;20191;-78
2021/07/08 05:14:16;;;;;;;4.66;1.94;;;;;;;16.39;86.35;99556.72;1993140;81;20212;-78
2021/07/08 05:17:19;;;;;;;6.76;1.96;;;;;;;16.74;85.59;99547.94;1994767;78;22025;-78
2021/07/08 05:20:23;;;;;;;6.59;2.15;;;;;;;17.09;84.41;99536.50;1997718;81;20230;-78
2021/07/08 05:23:28;;;;;;;7.75;2.10;;;;;;;17.37;82.99;99537.38;1998058;81;20268;-76
2021/07/08 05:26:35;;;;;;;5.21;2.03;;;;;;;17.50;82.34;99546.63;1998496;81;20760;-77
2021/07/08 05:29:38;;;;;;;4.39;2.05;;;;;;;17.74;81.81;99544.19;1997395;81;20773;-76
2021/07/08 05:32:40;;;;;;;7.15;2.10;;;;;;;18.15;80.86;99539.41;1992205;79;24623;-76
2021/07/08 05:35:43;;;;;;;9.05;3.50;;;;;;;18.56;79.20;99540.63;1992714;81;20206;-77
2021/07/08 05:38:46;;;;;;;12.98;3.67;;;;;;;18.68;77.92;99551.63;1992772;81;20179;-77
2021/07/08 05:41:48;;;;;;;7.00;3.06;;;;;;;18.51;77.78;99563.59;1992337;81;20682;-77
2021/07/08 05:44:51;;;;;;;8.48;3.13;;;;;;;18.34;78.50;99569.41;1991478;81;20228;-77
2021/07/08 05:47:53;;;;;;;6.96;2.99;;;;;;;18.14;78.58;99587.59;1996006;78;21632;-77
2021/07/08 05:50:56;;;;;;;6.40;2.69;;;;;;;17.99;79.17;99591.56;1997533;81;20178;-77
2021/07/08 05:54:00;;;;;;;9.01;2.74;;;;;;;17.89;80.01;99596.25;1997153;81;20198;-77
2021/07/08 05:57:03;;;;;;;9.96;2.54;;;;;;;17.80;80.52;99610.53;1996577;81;21140;-77
2021/07/08 06:00:06;;;;;;;10.88;3.08;;;;;;;17.80;81.09;99609.69;1997399;81;20183;-77
2021/07/08 06:03:08;;;;;;;7.19;3.31;;;;;;;17.81;81.41;99608.78;1992389;78;29057;-77
2021/07/08 06:06:11;;;;;;;7.24;2.65;;;;;;;17.84;81.95;99606.03;1991995;81;20248;-77
2021/07/08 06:09:13;;;;;;;8.46;2.86;;;;;;;17.90;82.25;99603.22;1991419;81;20669;-77
2021/07/08 06:12:16;;;;;;;15.13;2.91;;;;;;;17.98;82.46;99609.13;1992108;81;20257;-77
2021/07/08 06:15:20;;;;;;;8.29;2.72;;;;;;;18.05;82.26;99594.84;1992120;78;22975;-77
2021/07/08 06:18:23;;;;;;;6.54;2.78;;;;;;;18.21;82.05;99597.00;1996961;81;20203;-77
2021/07/08 06:21:26;;;;;;;10.50;2.40;;;;;;;18.36;81.53;99609.66;1997031;81;20178;-77
2021/07/08 06:24:28;;;;;;;6.50;2.41;;;;;;;18.39;80.00;99606.91;1996938;81;20219;-77
2021/07/08 06:27:31;;;;;;;9.76;2.61;;;;;;;18.38;80.16;99606.06;1997666;81;20200;-77
2021/07/08 06:30:33;;;;;;;10.04;2.89;;;;;;;18.36;79.96;99600.00;1995182;78;21083;-77
2021/07/08 06:33:36;;;;;;;11.86;2.16;;;;;;;18.42;80.48;99604.19;1992281;81;20205;-77
2021/07/08 06:36:39;;;;;;;8.82;2.54;;;;;;;18.49;80.73;99602.19;1993908;81;20198;-78
2021/07/08 06:39:42;;;;;;;6.61;2.58;;;;;;;18.56;81.03;99599.34;1992871;81;20179;-78
2021/07/08 06:42:45;;;;;;;9.27;2.71;;;;;;;18.60;80.95;99597.47;1994407;81;21162;-82
2021/07/08 06:45:48;;;;;;;9.13;2.81;;;;;;;18.58;79.91;99604.53;1997260;78;23019;-78
2021/07/08 06:48:51;;;;;;;7.30;2.67;;;;;;;18.60;79.63;99603.56;2003135;81;20225;-79
2021/07/08 06:51:54;;;;;;;8.71;2.72;;;;;;;18.64;79.23;99612.25;2003843;81;20678;-80
2021/07/08 06:54:57;;;;;;;7.41;2.42;;;;;;;18.61;79.52;99599.16;2004652;81;20697;-78
2021/07/08 06:58:00;;;;;;;7.04;2.83;;;;;;;18.58;79.67;99599.28;1998650;81;20722;-78
2021/07/08 07:01:03;;;;;;;12.35;4.03;;;;;;;18.60;79.32;99600.09;1996925;78;21451;-80
2021/07/08 07:04:09;;;;;;;11.38;4.39;;;;;;;18.61;79.89;99610.56;1998995;81;20208;-83
2021/07/08 07:07:15;;;;;;;11.54;4.49;;;;;;;18.60;79.48;99615.88;1998564;81;20241;-78
2021/07/08 07:10:18;;;;;;;11.51;4.05;;;;;;;18.58;79.85;99630.84;1994953;81;20381;-78
2021/07/08 07:13:21;;;;;;;15.34;3.59;;;;;;;18.56;80.09;99637.94;1995440;81;20195;-79
2021/07/08 07:16:23;;;;;;;10.19;3.91;;;;;;;18.55;80.14;99638.84;1995703;78;21386;-78
2021/07/08 07:19:26;;;;;;;10.46;3.54;;;;;;;18.51;80.14;99642.50;2000177;81;20283;-78
2021/07/08 07:22:29;;;;;;;11.07;3.65;;;;;;;18.52;80.63;99639.81;1997015;81;20186;-77
2021/07/08 07:25:34;;;;;;;11.00;4.41;;;;;;;18.54;80.70;99630.09;1996550;81;20212;-77
2021/07/08 07:28:37;;;;;;;12.26;4.55;;;;;;;18.59;80.47;99636.06;1996762;81;20194;-77
2021/07/08 07:31:40;;;;;;;13.38;4.29;;;;;;;18.57;79.95;99645.75;1996670;78;31542;-78
2021/07/08 07:34:44;;;;;;;12.26;4.63;;;;;;;18.57;79.85;99658.91;1997149;81;20186;-78
2021/07/08 07:37:47;;;;;;;17.63;4.72;;;;;;;18.55;80.15;99654.63;1996269;81;20529;-77
2021/07/08 07:40:50;;;;;;;14.01;4.49;;;;;;;18.49;80.59;99650.44;1997555;81;20170;-77
2021/07/08 07:43:52;;;;;;;13.06;4.07;;;;;;;18.46;80.85;99658.38;1998593;81;20220;-78
2021/07/08 07:46:55;;;;;;;9.86;4.53;;;;;;;18.38;81.29;99657.78;1993599;78;27698;-77
2021/07/08 07:49:59;;;;;;;13.14;4.45;;;;;;;18.35;81.43;99671.03;1996344;81;20316;-77
2021/07/08 07:53:02;;;;;;;8.95;3.95;;;;;;;18.31;82.05;99677.28;1993621;81;20283;-78
2021/07/08 07:56:05;;;;;;;8.14;3.86;;;;;;;18.23;82.76;99690.66;1998434;81;20164;-85
2021/07/08 07:59:08;;;;;;;9.90;3.97;;;;;;;18.20;82.66;99693.41;2008958;81;20135;-86
2021/07/08 08:02:12;;;;;;;9.90;4.00;;;;;;;18.16;82.84;99699.66;2000944;78;21989;-77
2021/07/08 08:08:30;;;;;;;9.65;3.80;;;;;;;18.00;82.04;99693.16;2000911;81;20166;-79
2021/07/08 08:11:33;;;;;;;9.94;3.90;;;;;;;17.95;82.31;99690.63;2000162;81;20354;-79
2021/07/08 08:14:36;;;;;;;7.26;3.72;;;;;;;17.94;82.82;99696.78;2000916;81;20280;-79
2021/07/08 08:17:39;;;;;;;7.38;3.53;;;;;;;17.90;83.41;99697.78;1993038;78;21896;-78
2021/07/08 08:20:50;;;;;;;7.69;3.51;;;;;;;17.87;83.86;99697.03;1992829;81;20581;-78
2021/07/08 08:23:53;;;;;;;9.18;3.70;;;;;;;17.81;84.18;99701.56;1995557;81;20194;-77
2021/07/08 08:26:55;;;;;;;8.11;3.38;;;;;;;17.80;84.17;99705.09;1992564;81;20782;-77
2021/07/08 08:29:58;;;;;;;10.16;3.65;;;;;;;17.76;84.35;99711.31;1992332;81;20783;-77
2021/07/08 08:33:01;;;;;;;6.78;3.05;;;;;;;17.70;84.83;99715.91;1996329;78;20886;-76
2021/07/08 08:36:03;;;;;;;7.68;3.28;;;;;;;17.66;85.35;99720.34;1997703;81;20243;-76
2021/07/08 08:39:06;;;;;;;8.41;2.88;;;;;;;17.66;85.85;99728.22;1997518;81;20189;-77
2021/07/08 08:42:11;;;;;;;9.94;2.76;;;;;;;17.58;86.48;99745.94;1996969;81;20183;-77
2021/07/08 08:45:18;;;;;;;8.44;2.50;;;;;;;17.49;86.40;99754.94;1995877;81;20178;-78
2021/07/08 08:48:20;;;;;;;9.09;2.55;;;;;;;17.36;85.91;99766.66;1998008;81;20395;-77
2021/07/08 08:51:25;;;;;;;7.64;2.09;;;;;;;17.29;86.16;99770.38;1996327;81;20319;-76
2021/07/08 08:54:27;;;;;;;10.88;2.21;;;;;;;17.14;85.90;99768.97;1996661;81;20577;-78
2021/07/08 08:57:30;;;;;;;6.75;2.21;;;;;;;17.06;86.19;99767.47;1995726;81;20207;-74
2021/07/08 09:00:38;;;;;;;9.82;2.45;;;;;;;16.99;86.48;99769.34;1993942;81;28064;-75
2021/07/08 09:03:42;;;;;;;11.22;2.68;;;;;;;16.87;86.49;99769.63;1990702;81;20191;-73
2021/07/08 09:06:44;;;;;;;3.79;2.25;;;;;;;16.82;87.20;99767.13;1990905;81;20183;-72
2021/07/08 09:09:48;;;;;;;6.40;2.19;;;;;;;16.79;87.49;99761.09;1990390;81;20228;-73
2021/07/08 09:12:58;;;;;;;7.71;2.38;;;;;;;16.78;87.66;99762.88;1990405;81;20187;-73
2021/07/08 09:16:13;;;;;;;5.86;1.98;;;;;;;16.81;88.01;99770.66;1990321;78;20608;-73
2021/07/08 09:19:19;;;;;;;7.68;2.19;;;;;;;16.77;87.96;99768.16;1996744;81;20643;-73
2021/07/08 09:22:29;;;;;;;5.30;2.19;;;;;;;16.75;88.12;99755.06;1995982;81;20207;-73
2021/07/08 09:25:32;;;;;;;6.11;1.90;;;;;;;16.74;88.34;99755.97;1997810;81;21121;-73
2021/07/08 09:28:36;;;;;;;3.85;1.94;;;;;;;16.75;88.48;99738.47;1996270;81;20171;-73
2021/07/08 09:31:39;;;;;;;5.24;2.11;;;;;;;16.71;88.56;99742.09;1992759;78;21857;-73
2021/07/08 09:34:57;;;;;;;6.13;2.13;;;;;;;16.69;88.74;99728.97;1991549;81;20679;-73
2021/07/08 09:38:11;;;;;;;4.19;2.33;;;;;;;16.62;88.73;99728.25;1990324;81;20208;-73
2021/07/08 09:41:22;;;;;;;4.14;2.01;;;;;;;16.66;89.25;99736.03;1991027;81;20194;-73
2021/07/08 09:44:26;;;;;;;7.94;2.13;;;;;;;16.71;89.25;99747.31;1990634;81;20226;-73
2021/07/08 09:47:30;;;;;;;9.27;2.22;;;;;;;16.74;89.26;99742.88;1993391;78;27245;-73
2021/07/08 09:50:33;;;;;;;3.49;1.94;;;;;;;16.83;89.41;99739.16;1995878;81;20216;-74
2021/07/08 09:53:49;;;;;;;5.09;1.98;;;;;;;16.92;89.87;99744.19;1996072;81;20208;-74
2021/07/08 09:56:56;;;;;;;7.20;1.83;;;;;;;16.94;89.20;99750.25;1995697;81;20275;-75
2021/07/08 09:59:59;;;;;;;3.96;1.95;;;;;;;16.97;88.98;99765.03;1995604;81;20217;-75
2021/07/08 10:03:03;;;;;;;5.05;1.94;;;;;;;17.01;88.92;99769.31;1995429;78;55904;-74
2021/07/08 10:06:07;;;;;;;4.78;2.19;;;;;;;17.06;89.20;99770.09;1996311;81;20170;-75
2021/07/08 10:09:16;;;;;;;6.16;2.41;;;;;;;17.08;89.72;99774.41;1996084;81;20755;-73
2021/07/08 10:12:21;;;;;;;6.40;2.25;;;;;;;17.11;90.26;99768.19;1996202;81;20207;-73
2021/07/08 10:15:28;;;;;;;4.28;2.21;;;;;;;17.16;90.37;99782.91;1994608;79;25370;-73
2021/07/08 10:18:32;;;;;;;4.97;2.47;;;;;;;17.21;90.15;99782.81;1996069;81;20207;-73
2021/07/08 10:21:36;;;;;;;5.10;2.30;;;;;;;17.21;90.06;99781.03;1997044;81;20179;-73
2021/07/08 10:24:39;;;;;;;6.10;2.90;;;;;;;17.23;89.68;99778.38;1997309;81;20661;-73
2021/07/08 10:27:44;;;;;;;8.41;2.91;;;;;;;17.22;89.54;99774.88;1997124;81;20665;-73
2021/07/08 10:30:50;;;;;;;5.78;2.74;;;;;;;17.25;88.91;99762.63;1995275;79;20183;-73
2021/07/08 10:34:05;;;;;;;4.59;2.51;;;;;;;17.25;88.52;99757.38;1992005;81;20220;-73
2021/07/08 10:37:08;;;;;;;4.45;2.16;;;;;;;17.33;88.41;99751.00;1992160;81;20208;-75
2021/07/08 10:40:28;;;;;;;6.38;2.31;;;;;;;17.44;88.62;99746.34;1991215;81;20183;-75
2021/07/08 10:43:35;;;;;;;3.88;1.92;;;;;;;17.61;88.80;99743.25;1990260;81;20223;-75
2021/07/08 10:46:58;;;;;;;5.35;2.26;;;;;;;17.71;88.38;99749.13;1992165;78;29610;-77
2021/07/08 10:50:03;;;;;;;7.09;2.49;;;;;;;17.81;88.22;99743.59;1997507;81;20776;-77
2021/07/08 10:53:54;;;;;;;6.10;2.03;;;;;;;17.91;87.80;99740.69;2000279;81;20188;-76
2021/07/08 10:57:00;;;;;;;4.28;1.96;;;;;;;18.03;87.49;99745.59;1997140;81;20182;-73
2021/07/08 11:00:09;;;;;;;2.72;1.73;;;;;;;18.12;87.24;99746.19;1995415;81;20174;-76
2021/07/08 11:03:41;;;;;;;4.68;1.74;;;;;;;18.15;86.13;99755.78;1997049;78;22434;-76
2021/07/08 11:06:46;;;;;;;3.15;1.81;;;;;;;18.12;84.64;99768.97;1997852;81;20559;-77
2021/07/08 11:10:04;;;;;;;2.26;1.80;;;;;;;18.05;84.03;99776.19;1997792;81;20713;-76
2021/07/08 11:13:27;;;;;;;;;;;;;;;18.04;84.69;99765.72;1998215;81;20602;-76
2021/07/08 11:16:47;;;;;;;2.86;1.70;;;;;;;18.09;85.13;99775.19;1996876;81;20567;-76
2021/07/08 11:19:51;;;;;;;5.76;1.69;;;;;;;18.17;84.91;99779.38;1996926;81;20220;-77
2021/07/08 11:22:54;;;;;;;5.57;2.39;;;;;;;18.20;85.12;99779.28;1996075;81;20194;-74
2021/07/08 11:25:56;;;;;;;5.45;2.06;;;;;;;18.22;85.45;99780.09;1997009;81;20232;-76
2021/07/08 11:29:00;;;;;;;4.28;2.08;;;;;;;18.19;85.18;99788.94;1997930;81;20174;-75
2021/07/08 11:32:31;;;;;;;4.50;2.04;;;;;;;18.17;85.53;99789.88;1992794;78;27052;-77
2021/07/08 11:35:40;;;;;;;3.86;2.10;;;;;;;18.16;86.14;99781.16;1992566;81;20256;-74
2021/07/08 11:38:43;;;;;;;2.33;1.98;;;;;;;18.18;86.52;99778.47;1992817;81;20272;-76
2021/07/08 11:41:50;;;;;;;3.04;1.83;;;;;;;18.20;86.38;99782.78;1990480;81;20195;-75
2021/07/08 11:44:53;;;;;;;5.24;2.49;;;;;;;18.25;86.46;99774.75;1991181;81;20213;-75
2021/07/08 11:47:57;;;;;;;5.04;2.03;;;;;;;18.26;86.38;99773.84;1995104;78;20204;-75
2021/07/08 11:51:01;;;;;;;2.91;1.91;;;;;;;18.23;86.28;99776.56;1995926;81;20225;-75
2021/07/08 11:54:06;;;;;;;4.45;1.94;;;;;;;18.22;86.59;99785.34;1996406;81;20170;-76
2021/07/08 11:57:08;;;;;;;3.89;1.76;;;;;;;18.16;86.64;99790.78;1996274;81;20988;-76
2021/07/08 12:00:36;;;;;;;3.53;1.74;;;;;;;18.03;85.93;99798.16;1995903;81;20174;-75
2021/07/08 12:03:41;;;;;;;9.01;2.00;;;;;;;17.96;86.29;99794.00;1990153;81;20276;-74
2021/07/08 12:06:44;;;;;;;4.59;2.01;;;;;;;17.89;86.55;99800.31;1990235;81;20200;-74
2021/07/08 12:09:48;;;;;;;3.61;1.69;;;;;;;17.83;86.32;99796.09;1993722;81;20343;-74
2021/07/08 12:12:53;;;;;;;3.13;1.88;;;;;;;17.79;86.17;99791.84;1990863;81;20187;-73
2021/07/08 12:16:03;;;;;;;4.38;1.63;;;;;;;17.73;86.15;99795.47;1991066;78;24653;-72
2021/07/08 12:19:15;;;;;;;5.55;2.05;;;;;;;17.70;86.17;99789.44;1995867;81;21016;-73
2021/07/08 12:22:17;;;;;;;3.92;1.66;;;;;;;17.57;86.68;99790.63;1996131;81;20227;-73
2021/07/08 12:25:22;;;;;;;6.74;1.81;;;;;;;17.49;86.83;99791.69;1996548;81;20202;-73
2021/07/08 12:28:24;;;;;;;2.90;1.81;;;;;;;17.41;86.95;99800.66;1995709;81;20206;-73
2021/07/08 12:31:40;;;;;;;3.06;1.50;;;;;;;17.39;87.38;99802.47;1993406;79;21672;-74
2021/07/08 12:34:54;;;;;;;2.50;1.60;;;;;;;17.34;87.79;99799.97;1992391;81;20244;-73
2021/07/08 12:40:39;;;;;;;5.21;2.01;;;;;;;17.30;87.53;99793.06;2068038;77;20158;-73
2021/07/08 12:43:42;;;;;;;5.18;1.80;;;;;;;17.21;87.42;99791.53;2060908;78;20182;-72
2021/07/08 12:46:53;;;;;;;3.20;1.46;;;;;;;17.15;87.27;99796.09;2049944;76;20542;-77
2021/07/08 12:49:59;;;;;;;4.42;1.63;;;;;;;17.07;86.88;99793.66;2042934;79;20585;-79
2021/07/08 12:53:06;;;;;;;3.15;1.70;;;;;;;17.06;86.86;99791.06;2043591;79;20210;-79
2021/07/08 12:56:10;;;;;;;1.89;1.10;;;;;;;17.03;86.80;99799.00;2042514;79;20165;-79
2021/07/08 12:59:17;;;;;;;4.78;0.80;;;;;;;16.99;86.64;99798.22;2040758;79;20192;-80
2021/07/08 13:02:22;;;;;;;4.57;1.10;;;;;;;16.90;85.51;99804.56;2043887;77;20235;-80
2021/07/08 13:05:41;;;;;;;2.74;0.96;;;;;;;16.79;84.04;99803.06;2047334;79;20241;-80
2021/07/08 13:08:44;;;;;;;1.95;0.96;;;;;;;16.73;84.35;99806.72;2049144;79;20328;-81
2021/07/08 13:11:48;;;;;;;2.14;1.10;;;;;;;16.71;84.68;99800.63;2052289;79;20169;-80
2021/07/08 13:14:52;;;;;;;3.42;1.15;;;;;;;16.69;85.53;99793.66;2050922;79;20219;-81
2021/07/08 13:18:07;;;;;;;2.49;1.00;;;;;;;16.74;86.40;99795.31;2049493;76;22853;-82
2021/07/08 13:21:16;;;;;;;4.64;1.08;;;;;;;16.78;86.41;99793.47;2049341;79;20213;-82
2021/07/08 13:27:58;;;;;;;4.40;1.46;;;;;;;17.00;87.06;99786.81;2021279;69;20266;-83
2021/07/08 13:31:13;;;;;;;2.74;1.25;;;;;;;17.13;85.99;99801.38;2005048;77;287860;-85
2021/07/08 13:34:22;;;;;;;2.54;1.38;;;;;;;17.23;85.06;99796.75;2014590;80;20194;-82
2021/07/08 13:37:26;;;;;;;3.91;1.50;;;;;;;17.38;85.04;99788.47;2015419;80;20182;-84
2021/07/08 13:47:24;;;;;;;3.53;1.28;;;;;;;17.55;82.85;99782.78;2049979;68;195612;-85
2021/07/08 13:50:29;;;;;;;2.64;1.52;;;;;;;17.71;83.04;99788.53;2042690;79;20196;-83
2021/07/08 13:53:32;;;;;;;3.70;1.80;;;;;;;17.78;82.16;99784.84;2042218;79;20178;-85
2021/07/08 13:56:36;;;;;;;3.33;1.67;;;;;;;17.98;82.89;99785.16;2042507;79;20170;-86
2021/07/08 13:59:42;;;;;;;4.06;1.49;;;;;;;18.17;82.77;99782.00;2043433;79;20155;-86
2021/07/08 14:22:03;;;;;;;2.44;1.50;;;;;;;18.94;79.88;99747.19;2113673;70;20173;-86
2021/07/08 14:25:07;;;;;;;3.22;1.46;;;;;;;19.10;79.04;99743.16;2057319;70;20185;-85
2021/07/08 14:28:11;;;;;;;2.05;1.21;;;;;;;19.13;78.12;99731.66;2154667;70;20238;-84
2021/07/08 14:34:51;;;;;;;2.51;1.04;;;;;;;19.11;77.55;99722.94;2022155;70;20186;-83
2021/07/08 14:37:54;;;;;;;1.55;0.95;;;;;;;19.33;76.93;99724.78;2014250;80;20189;-83
2021/07/08 14:40:58;;;;;;;3.92;0.90;;;;;;;19.79;77.83;99719.69;2018797;80;20182;-84
2021/07/08 14:54:33;;;;;;;3.75;1.06;;;;;;;20.45;71.43;99715.41;2068538;70;20186;-81
2021/07/08 15:04:42;;;;;;;2.79;1.30;;;;;;;20.06;74.14;99749.41;2259792;70;20219;-78
2021/07/08 15:07:44;;;;;;;3.64;1.20;;;;;;;20.01;75.36;99746.09;2123909;70;20253;-79
2021/07/08 15:17:52;;;;;;;4.47;1.00;;;;;;;20.04;75.21;99736.31;2137333;70;20229;-83
2021/07/08 15:20:55;;;;;;;2.21;0.80;;;;;;;20.12;75.57;99741.31;2010518;81;20188;-84
2021/07/08 15:23:58;;;;;;;2.01;0.68;;;;;;;20.23;75.39;99726.78;2009085;81;20207;-80
2021/07/08 15:27:01;;;;;;;1.75;0.60;;;;;;;20.26;73.89;99725.78;2008100;80;20245;-81
2021/07/08 15:30:05;;;;;;;2.11;0.61;;;;;;;20.38;73.05;99720.03;2007541;80;20267;-82
2021/07/08 15:33:08;;;;;;;1.31;0.60;;;;;;;20.68;72.55;99714.50;2009645;77;22741;-81